Time;durP1;ratioP1;P1;durP2;ratioP2;P2;SDS_P1;SDS_P2;PMS_P1;PMS_P2;Temp;Humidity;BMP_temperature;BMP_pressure;BME280_temperature;BME280_humidity;BME280_pressure;Samples;Min_cycle;Max_cycle;Signal;HPM_P1;HPM_P2
2022/01/27 00:03:14;;;;;;;57.42;15.85;;;;;;;;;;4890475;29;20036;-78
2022/01/27 00:05:45;;;;;;;46.70;15.30;;;;;;;;;;4888722;29;20518;-80
2022/01/27 00:08:15;;;;;;;40.95;12.55;;;;;;;;;;4884881;29;20113;-79
2022/01/27 00:10:57;;;;;;;54.38;17.23;;;;;;;;;;4883992;29;20056;-80
2022/01/27 00:13:29;;;;;;;49.10;14.82;;;;;;;;;;4867532;29;20024;-78
2022/01/27 00:16:10;;;;;;;48.28;14.77;;;;;;;;;;4885255;29;20024;-80
2022/01/27 00:18:35;;;;;;;46.92;14.30;;;;;;;;;;4884733;29;20036;-79
2022/01/27 00:21:00;;;;;;;52.83;14.65;;;;;;;;;;4885155;29;20394;-80
2022/01/27 00:23:25;;;;;;;51.88;15.55;;;;;;;;;;4883731;29;20033;-80
2022/01/27 00:25:51;;;;;;;56.10;16.85;;;;;;;;;;4867364;29;20017;-79
2022/01/27 00:28:16;;;;;;;47.97;14.82;;;;;;;;;;4883552;29;20021;-80
2022/01/27 00:30:41;;;;;;;47.67;16.10;;;;;;;;;;4867230;29;20029;-80
2022/01/27 00:33:07;;;;;;;53.30;16.95;;;;;;;;;;4867364;29;20036;-79
2022/01/27 00:35:33;;;;;;;46.88;14.25;;;;;;;;;;4883588;29;20025;-81
2022/01/27 00:37:59;;;;;;;50.88;14.20;;;;;;;;;;4882211;29;20044;-78
2022/01/27 00:40:24;;;;;;;39.13;12.15;;;;;;;;;;4868930;29;20028;-81
2022/01/27 00:42:49;;;;;;;44.67;12.93;;;;;;;;;;4886905;29;20025;-83
2022/01/27 00:45:15;;;;;;;52.53;15.90;;;;;;;;;;4888229;29;20100;-80
2022/01/27 00:47:40;;;;;;;51.33;14.18;;;;;;;;;;4875580;29;20089;-81
2022/01/27 00:50:06;;;;;;;46.03;13.50;;;;;;;;;;4875271;29;20025;-81
2022/01/27 00:52:39;;;;;;;53.67;15.38;;;;;;;;;;4877362;29;20045;-82
2022/01/27 00:55:06;;;;;;;57.85;17.05;;;;;;;;;;4895396;29;20029;-81
2022/01/27 00:57:56;;;;;;;;;;;;;;;;;;;;;
2022/01/27 01:00:03;;;;;;;55.00;18.15;;;;;;;;;;4891763;29;20031;-82
2022/01/27 01:03:34;;;;;;;42.77;13.03;;;;;;;;;;4874617;29;20085;-81
2022/01/27 01:07:58;;;;;;;50.88;15.27;;;;;;;;;;4891683;29;20036;-81
2022/01/27 01:15:52;;;;;;;42.78;12.75;;;;;;;;;;4891910;29;20448;-80
2022/01/27 01:33:57;;;;;;;42.70;14.00;;;;;;;;;;4889673;29;20013;-78
2022/01/27 01:36:37;;;;;;;43.10;15.50;;;;;;;;;;4891914;29;20021;-80
2022/01/27 01:39:06;;;;;;;42.25;15.13;;;;;;;;;;4876233;29;20057;-79
2022/01/27 01:41:31;;;;;;;44.80;15.65;;;;;;;;;;4875087;29;20047;-79
2022/01/27 01:43:57;;;;;;;44.85;13.00;;;;;;;;;;4891051;29;20474;-79
2022/01/27 01:46:23;;;;;;;39.15;13.48;;;;;;;;;;4873329;29;20092;-79
2022/01/27 01:48:48;;;;;;;35.58;14.02;;;;;;;;;;4873396;29;20025;-80
2022/01/27 01:51:23;;;;;;;34.55;12.05;;;;;;;;;;4873121;29;20029;-80
2022/01/27 01:53:48;;;;;;;38.10;12.85;;;;;;;;;;4889427;29;20041;-79
2022/01/27 01:56:14;;;;;;;45.85;12.13;;;;;;;;;;4871645;29;20060;-79
2022/01/27 01:58:42;;;;;;;36.45;12.82;;;;;;;;;;4888838;29;20044;-78
2022/01/27 02:01:07;;;;;;;36.97;10.50;;;;;;;;;;4889189;29;20017;-79
2022/01/27 02:03:32;;;;;;;32.33;11.88;;;;;;;;;;4887814;29;20090;-78
2022/01/27 02:05:58;;;;;;;27.80;9.98;;;;;;;;;;4885528;29;20029;-79
2022/01/27 02:19:11;;;;;;;25.10;7.40;;;;;;;;;;4887031;29;20036;-78
2022/01/27 02:21:48;;;;;;;23.85;8.57;;;;;;;;;;4868767;29;20104;-78
2022/01/27 02:24:13;;;;;;;33.10;11.23;;;;;;;;;;4885412;29;20160;-78
2022/01/27 02:26:39;;;;;;;30.77;11.07;;;;;;;;;;4869057;29;20102;-78
2022/01/27 02:29:05;;;;;;;26.73;9.43;;;;;;;;;;4885657;29;20029;-78
2022/01/27 02:31:30;;;;;;;34.70;10.75;;;;;;;;;;4869160;29;20033;-79
2022/01/27 02:33:56;;;;;;;23.73;8.40;;;;;;;;;;4868867;29;20029;-78
2022/01/27 02:36:22;;;;;;;26.67;9.15;;;;;;;;;;4868828;29;20056;-79
2022/01/27 02:38:47;;;;;;;23.25;8.20;;;;;;;;;;4885935;29;20021;-78
2022/01/27 02:41:18;;;;;;;31.98;9.18;;;;;;;;;;4887739;29;20029;-78
2022/01/27 02:43:43;;;;;;;28.40;10.88;;;;;;;;;;4871763;29;20021;-79
2022/01/27 02:46:09;;;;;;;23.35;9.25;;;;;;;;;;4874930;29;20077;-79
2022/01/27 02:48:35;;;;;;;26.88;10.00;;;;;;;;;;4874836;29;20025;-80
2022/01/27 02:51:00;;;;;;;32.08;9.55;;;;;;;;;;4875170;29;20027;-80
2022/01/27 02:53:25;;;;;;;31.20;10.18;;;;;;;;;;4892688;29;20017;-80
2022/01/27 02:55:51;;;;;;;26.33;10.18;;;;;;;;;;4893038;29;20113;-79
2022/01/27 02:58:16;;;;;;;27.40;8.75;;;;;;;;;;4876852;29;20021;-81
2022/01/27 03:00:42;;;;;;;22.52;8.60;;;;;;;;;;4874479;29;20025;-80
2022/01/27 03:03:07;;;;;;;21.35;9.13;;;;;;;;;;4875266;29;20020;-80
2022/01/27 03:05:32;;;;;;;25.42;8.57;;;;;;;;;;4890960;29;20028;-79
2022/01/27 03:07:58;;;;;;;20.67;9.25;;;;;;;;;;4873432;29;20025;-80
2022/01/27 03:10:27;;;;;;;27.35;9.20;;;;;;;;;;4874310;29;20031;-80
2022/01/27 03:12:59;;;;;;;20.15;8.20;;;;;;;;;;4870494;29;20033;-79
2022/01/27 03:15:25;;;;;;;28.23;9.07;;;;;;;;;;4888202;29;20021;-79
2022/01/27 03:17:50;;;;;;;19.55;8.73;;;;;;;;;;4871064;29;20127;-79
2022/01/27 03:20:15;;;;;;;18.42;8.05;;;;;;;;;;4871289;29;20028;-80
2022/01/27 03:22:41;;;;;;;23.50;9.00;;;;;;;;;;4873479;29;20091;-79
2022/01/27 03:25:07;;;;;;;19.05;8.63;;;;;;;;;;4889288;29;20125;-79
2022/01/27 03:27:33;;;;;;;25.38;9.68;;;;;;;;;;4871456;29;20031;-78
2022/01/27 03:29:58;;;;;;;21.58;8.80;;;;;;;;;;4890497;29;20024;-79
2022/01/27 03:32:26;;;;;;;23.15;9.60;;;;;;;;;;4889929;29;20021;-79
2022/01/27 03:34:51;;;;;;;23.60;9.88;;;;;;;;;;4892047;29;20021;-80
2022/01/27 03:37:17;;;;;;;29.08;10.13;;;;;;;;;;4902014;29;20035;-78
2022/01/27 03:39:42;;;;;;;25.30;10.07;;;;;;;;;;4893154;29;20013;-79
2022/01/27 03:42:08;;;;;;;23.20;8.55;;;;;;;;;;4909005;29;20057;-79
2022/01/27 03:44:43;;;;;;;26.77;10.48;;;;;;;;;;4891126;29;20017;-79
2022/01/27 03:47:08;;;;;;;27.08;10.95;;;;;;;;;;4907881;29;20024;-79
2022/01/27 03:49:34;;;;;;;21.20;8.32;;;;;;;;;;4891546;29;20028;-79
2022/01/27 03:52:01;;;;;;;25.35;8.63;;;;;;;;;;4902933;29;20040;-78
2022/01/27 03:54:26;;;;;;;26.20;9.90;;;;;;;;;;4905643;29;20028;-80
2022/01/27 03:56:52;;;;;;;22.20;9.45;;;;;;;;;;4887529;29;20025;-77
2022/01/27 03:59:17;;;;;;;19.70;7.70;;;;;;;;;;4904814;29;20032;-78
2022/01/27 04:01:43;;;;;;;24.20;8.88;;;;;;;;;;4885062;29;20028;-80
2022/01/27 04:04:08;;;;;;;19.83;7.82;;;;;;;;;;4886121;29;20271;-79
2022/01/27 04:06:34;;;;;;;21.25;9.18;;;;;;;;;;4885274;29;20029;-80
2022/01/27 04:09:00;;;;;;;19.08;9.10;;;;;;;;;;4902457;29;20051;-79
2022/01/27 04:11:26;;;;;;;34.47;10.63;;;;;;;;;;4902955;29;20024;-79
2022/01/27 04:13:51;;;;;;;21.95;8.10;;;;;;;;;;4899402;29;20020;-79
2022/01/27 04:16:16;;;;;;;31.23;9.95;;;;;;;;;;4884496;29;20048;-80
2022/01/27 04:18:42;;;;;;;24.15;8.68;;;;;;;;;;4903270;29;20028;-80
2022/01/27 04:21:07;;;;;;;20.20;8.38;;;;;;;;;;4884796;29;20024;-81
2022/01/27 04:23:33;;;;;;;17.35;6.65;;;;;;;;;;4904498;29;20104;-80
2022/01/27 04:25:58;;;;;;;18.00;7.10;;;;;;;;;;4887527;29;20049;-80
2022/01/27 04:28:30;;;;;;;20.50;6.82;;;;;;;;;;4903465;29;20397;-80
2022/01/27 04:30:58;;;;;;;22.48;9.10;;;;;;;;;;4904084;29;20242;-80
2022/01/27 04:33:27;;;;;;;25.38;9.02;;;;;;;;;;4891438;29;20063;-81
2022/01/27 04:35:56;;;;;;;;;;;;;;;;;;4893988;29;20036;-80
2022/01/27 04:38:30;;;;;;;;;;;;;;;;;;4890766;29;19917;-80
2022/01/27 04:46:03;;;;;;;21.00;8.45;;;;;;;;;;4905044;29;20056;-78
2022/01/27 04:48:40;;;;;;;20.85;6.47;;;;;;;;;;4886085;29;20048;-78
2022/01/27 04:51:13;;;;;;;25.15;7.88;;;;;;;;;;4905408;29;20049;-79
2022/01/27 04:53:45;;;;;;;22.58;9.07;;;;;;;;;;4891656;29;20077;-81
2022/01/27 04:56:13;;;;;;;20.40;9.00;;;;;;;;;;4891040;29;20509;-79
2022/01/27 04:58:39;;;;;;;20.60;7.95;;;;;;;;;;4891452;29;20024;-79
2022/01/27 05:01:05;;;;;;;21.38;8.63;;;;;;;;;;4892172;29;20028;-79
2022/01/27 05:03:40;;;;;;;21.05;7.05;;;;;;;;;;4893221;29;20398;-78
2022/01/27 05:06:06;;;;;;;22.88;8.07;;;;;;;;;;4892403;29;20028;-79
2022/01/27 05:08:32;;;;;;;12.60;5.63;;;;;;;;;;4910165;29;20016;-79
2022/01/27 05:11:25;;;;;;;27.42;10.55;;;;;;;;;;4895784;29;20024;-79
2022/01/27 05:13:53;;;;;;;18.08;7.90;;;;;;;;;;4910917;29;20056;-78
2022/01/27 05:16:18;;;;;;;20.60;7.20;;;;;;;;;;4891241;29;20497;-79
2022/01/27 05:18:44;;;;;;;19.63;9.15;;;;;;;;;;4890676;29;20021;-78
2022/01/27 05:21:09;;;;;;;19.80;9.35;;;;;;;;;;4889935;29;20032;-79
2022/01/27 05:23:34;;;;;;;22.40;9.43;;;;;;;;;;4890526;29;20066;-79
2022/01/27 05:26:00;;;;;;;21.17;9.38;;;;;;;;;;4884357;29;20444;-80
2022/01/27 05:28:25;;;;;;;22.85;8.98;;;;;;;;;;4884577;29;20422;-79
2022/01/27 05:30:50;;;;;;;17.08;6.82;;;;;;;;;;4901238;29;20021;-80
2022/01/27 05:33:15;;;;;;;20.58;8.98;;;;;;;;;;4884865;29;20031;-79
2022/01/27 05:35:45;;;;;;;20.02;8.30;;;;;;;;;;4901813;29;20025;-79
2022/01/27 05:38:11;;;;;;;26.38;9.73;;;;;;;;;;4905675;29;20033;-79
2022/01/27 05:40:39;;;;;;;18.90;8.07;;;;;;;;;;4906613;29;20040;-81
2022/01/27 05:43:05;;;;;;;24.83;8.98;;;;;;;;;;4889756;29;20048;-80
2022/01/27 05:45:30;;;;;;;22.98;8.77;;;;;;;;;;4889948;29;20033;-81
2022/01/27 05:47:55;;;;;;;23.77;8.43;;;;;;;;;;4898417;29;20074;-80
2022/01/27 05:50:21;;;;;;;20.63;8.40;;;;;;;;;;4897988;29;20406;-79
2022/01/27 05:52:49;;;;;;;20.13;8.27;;;;;;;;;;4897076;29;20060;-79
2022/01/27 05:55:14;;;;;;;19.55;7.82;;;;;;;;;;4898139;29;20045;-77
2022/01/27 05:57:40;;;;;;;13.07;5.10;;;;;;;;;;4912625;29;20037;-78
2022/01/27 06:00:05;;;;;;;19.95;8.68;;;;;;;;;;4895538;29;20027;-79
2022/01/27 06:02:31;;;;;;;28.75;10.38;;;;;;;;;;4908820;29;20028;-79
2022/01/27 06:04:56;;;;;;;21.35;9.60;;;;;;;;;;4902657;29;20054;-78
2022/01/27 06:07:24;;;;;;;15.55;7.68;;;;;;;;;;4886309;29;20024;-79
2022/01/27 06:09:50;;;;;;;20.42;7.18;;;;;;;;;;4903338;29;20504;-78
2022/01/27 06:12:15;;;;;;;17.33;7.95;;;;;;;;;;4886138;29;20036;-78
2022/01/27 06:14:40;;;;;;;21.13;9.32;;;;;;;;;;4903315;29;20025;-78
2022/01/27 06:17:06;;;;;;;14.88;6.60;;;;;;;;;;4890628;29;20073;-80
2022/01/27 06:19:31;;;;;;;18.52;8.77;;;;;;;;;;4886521;29;20112;-80
2022/01/27 06:21:57;;;;;;;16.90;8.82;;;;;;;;;;4887451;29;20091;-79
2022/01/27 06:24:26;;;;;;;18.00;8.48;;;;;;;;;;4904417;29;20104;-81
2022/01/27 06:26:52;;;;;;;23.38;9.43;;;;;;;;;;4901723;29;20029;-80
2022/01/27 06:29:17;;;;;;;20.90;9.57;;;;;;;;;;4884763;29;20036;-80
2022/01/27 06:31:42;;;;;;;21.67;9.20;;;;;;;;;;4885517;29;20064;-79
2022/01/27 06:34:08;;;;;;;21.40;9.57;;;;;;;;;;4886642;29;20029;-79
2022/01/27 06:36:33;;;;;;;22.50;9.55;;;;;;;;;;4901257;29;20068;-79
2022/01/27 06:38:59;;;;;;;19.58;8.27;;;;;;;;;;4903473;29;20016;-78
2022/01/27 06:41:24;;;;;;;21.65;10.05;;;;;;;;;;4886469;29;20426;-79
2022/01/27 06:43:49;;;;;;;17.83;8.90;;;;;;;;;;4903338;29;20031;-79
2022/01/27 06:46:15;;;;;;;26.05;8.77;;;;;;;;;;4886097;29;20016;-79
2022/01/27 06:48:40;;;;;;;17.45;7.85;;;;;;;;;;4902008;29;20017;-78
2022/01/27 06:51:05;;;;;;;19.10;8.98;;;;;;;;;;4887282;29;20024;-78
2022/01/27 06:53:31;;;;;;;18.98;7.90;;;;;;;;;;4887851;29;20112;-80
2022/01/27 06:55:56;;;;;;;21.80;10.07;;;;;;;;;;4889268;29;20438;-79
2022/01/27 06:58:22;;;;;;;16.85;7.60;;;;;;;;;;4890455;29;20035;-79
2022/01/27 07:00:47;;;;;;;18.15;8.05;;;;;;;;;;4890614;29;20398;-80
2022/01/27 07:03:13;;;;;;;18.85;8.98;;;;;;;;;;4910059;29;20013;-79
2022/01/27 07:05:40;;;;;;;22.98;7.93;;;;;;;;;;4895345;29;20024;-80
2022/01/27 07:08:06;;;;;;;17.50;7.78;;;;;;;;;;4895913;29;20044;-79
2022/01/27 07:10:31;;;;;;;13.88;6.35;;;;;;;;;;4911612;29;20035;-82
2022/01/27 07:12:56;;;;;;;19.70;8.20;;;;;;;;;;4897848;29;20347;-81
2022/01/27 07:15:24;;;;;;;9.93;4.88;;;;;;;;;;4912683;29;20020;-80
2022/01/27 07:17:50;;;;;;;11.38;3.17;;;;;;;;;;4895707;29;20017;-80
2022/01/27 07:20:17;;;;;;;20.83;9.30;;;;;;;;;;4894947;29;20394;-79
2022/01/27 07:22:42;;;;;;;16.30;6.88;;;;;;;;;;4892006;29;20047;-81
2022/01/27 07:25:08;;;;;;;15.70;6.82;;;;;;;;;;4893088;29;20162;-80
2022/01/27 07:27:34;;;;;;;24.40;9.40;;;;;;;;;;4910498;29;20048;-80
2022/01/27 07:30:00;;;;;;;14.25;6.60;;;;;;;;;;4892378;29;20025;-79
2022/01/27 07:32:26;;;;;;;6.82;3.65;;;;;;;;;;4895944;29;20115;-80
2022/01/27 07:34:51;;;;;;;14.38;6.07;;;;;;;;;;4894656;29;20072;-79
2022/01/27 07:37:16;;;;;;;10.27;4.43;;;;;;;;;;4906210;29;20021;-80
2022/01/27 07:39:42;;;;;;;17.67;7.28;;;;;;;;;;4890731;29;20394;-79
2022/01/27 07:42:08;;;;;;;15.20;7.28;;;;;;;;;;4906717;29;20025;-79
2022/01/27 07:44:33;;;;;;;20.15;8.10;;;;;;;;;;4906088;29;20434;-79
2022/01/27 07:46:58;;;;;;;16.05;7.88;;;;;;;;;;4888695;29;20027;-80
2022/01/27 07:49:24;;;;;;;19.25;8.20;;;;;;;;;;4892195;29;20028;-79
2022/01/27 07:51:49;;;;;;;16.80;7.55;;;;;;;;;;4890564;29;20024;-81
2022/01/27 07:54:15;;;;;;;19.30;9.05;;;;;;;;;;4914317;29;20319;-82
2022/01/27 07:56:43;;;;;;;14.80;6.60;;;;;;;;;;4916372;29;20043;-79
2022/01/27 07:59:08;;;;;;;15.55;7.03;;;;;;;;;;4905044;29;20537;-79
2022/01/27 08:01:36;;;;;;;17.33;7.43;;;;;;;;;;4905291;29;20100;-79
2022/01/27 08:04:04;;;;;;;19.45;8.57;;;;;;;;;;4921978;29;20029;-79
2022/01/27 08:06:30;;;;;;;20.58;8.77;;;;;;;;;;4915219;29;20036;-79
2022/01/27 08:08:55;;;;;;;19.33;8.27;;;;;;;;;;4931017;29;20032;-78
2022/01/27 08:11:20;;;;;;;16.33;7.50;;;;;;;;;;4909073;29;20036;-79
2022/01/27 08:13:47;;;;;;;14.10;6.70;;;;;;;;;;4925561;29;20033;-79
2022/01/27 08:16:12;;;;;;;17.65;7.30;;;;;;;;;;4925561;29;20035;-80
2022/01/27 08:18:38;;;;;;;20.83;8.88;;;;;;;;;;4922089;29;20450;-79
2022/01/27 08:21:03;;;;;;;24.15;9.43;;;;;;;;;;4903534;29;20028;-80
2022/01/27 08:23:29;;;;;;;15.13;5.78;;;;;;;;;;4909758;29;20060;-79
2022/01/27 08:26:07;;;;;;;14.75;7.65;;;;;;;;;;4912301;29;20021;-82
2022/01/27 08:31:08;;;;;;;24.25;10.98;;;;;;;;;;4909606;29;20031;-78
2022/01/27 08:33:37;;;;;;;27.08;8.93;;;;;;;;;;4900408;29;20056;-79
2022/01/27 08:36:02;;;;;;;19.10;8.50;;;;;;;;;;4883909;29;20024;-78
2022/01/27 08:38:28;;;;;;;21.02;8.10;;;;;;;;;;4885419;29;20502;-77
2022/01/27 08:40:54;;;;;;;10.52;5.20;;;;;;;;;;4885910;29;20398;-79
2022/01/27 08:43:20;;;;;;;22.40;9.55;;;;;;;;;;4885997;29;20024;-78
2022/01/27 08:45:46;;;;;;;27.02;9.75;;;;;;;;;;4887238;29;20017;-79
2022/01/27 08:48:14;;;;;;;23.10;9.68;;;;;;;;;;4885940;29;20056;-79
2022/01/27 08:50:40;;;;;;;19.50;8.35;;;;;;;;;;4891475;29;20597;-80
2022/01/27 08:53:06;;;;;;;20.35;8.45;;;;;;;;;;4913990;29;20060;-79
2022/01/27 08:55:31;;;;;;;17.55;7.57;;;;;;;;;;4904806;29;20028;-79
2022/01/27 08:57:57;;;;;;;17.27;7.15;;;;;;;;;;4920899;29;20052;-80
2022/01/27 09:00:23;;;;;;;16.10;7.53;;;;;;;;;;4893887;29;20064;-79
2022/01/27 09:02:48;;;;;;;20.63;9.48;;;;;;;;;;4907201;29;20442;-80
2022/01/27 09:05:14;;;;;;;24.05;9.38;;;;;;;;;;4901853;29;20032;-79
2022/01/27 09:07:39;;;;;;;19.73;8.43;;;;;;;;;;4895493;29;20541;-79
2022/01/27 09:10:06;;;;;;;17.80;6.35;;;;;;;;;;4903966;29;20028;-79
2022/01/27 09:12:31;;;;;;;17.67;7.78;;;;;;;;;;4898937;29;20134;-79
2022/01/27 09:14:58;;;;;;;22.38;8.60;;;;;;;;;;4892424;29;20075;-78
2022/01/27 09:17:26;;;;;;;18.90;7.57;;;;;;;;;;4902132;29;20132;-78
2022/01/27 09:19:52;;;;;;;21.67;9.45;;;;;;;;;;4910687;29;20062;-77
2022/01/27 09:22:19;;;;;;;23.15;9.43;;;;;;;;;;4893961;29;20021;-77
2022/01/27 09:25:04;;;;;;;21.65;8.82;;;;;;;;;;4889877;29;20020;-77
2022/01/27 09:27:29;;;;;;;21.15;10.20;;;;;;;;;;4894785;29;20501;-77
2022/01/27 09:29:55;;;;;;;17.27;8.02;;;;;;;;;;4910720;29;20027;-77
2022/01/27 09:32:20;;;;;;;17.67;7.95;;;;;;;;;;4889901;29;20391;-77
2022/01/27 09:34:46;;;;;;;22.60;9.38;;;;;;;;;;4915031;29;20028;-76
2022/01/27 09:37:12;;;;;;;14.85;6.60;;;;;;;;;;4897425;29;20031;-78
2022/01/27 09:39:37;;;;;;;19.27;8.48;;;;;;;;;;4896616;29;20024;-78
2022/01/27 09:42:07;;;;;;;19.17;7.95;;;;;;;;;;4899629;29;20035;-78
2022/01/27 09:44:33;;;;;;;20.02;8.70;;;;;;;;;;4903614;29;20056;-78
2022/01/27 09:47:01;;;;;;;17.80;8.18;;;;;;;;;;4910132;29;20030;-78
2022/01/27 09:51:57;;;;;;;21.00;9.30;;;;;;;;;;4913104;29;20056;-78
2022/01/27 09:54:23;;;;;;;24.27;8.27;;;;;;;;;;4894664;29;20052;-78
2022/01/27 09:56:49;;;;;;;21.27;8.48;;;;;;;;;;4892004;29;20053;-78
2022/01/27 09:59:15;;;;;;;21.73;8.77;;;;;;;;;;4884561;29;20402;-77
2022/01/27 10:01:52;;;;;;;23.40;8.73;;;;;;;;;;4911452;23;20035;-71
2022/01/27 10:04:17;;;;;;;17.90;7.05;;;;;;;;;;4939410;29;20161;-72
2022/01/27 10:06:44;;;;;;;21.85;9.57;;;;;;;;;;4940790;29;20052;-69
2022/01/27 10:09:23;;;;;;;22.33;8.82;;;;;;;;;;4926099;29;20046;-72
2022/01/27 10:11:49;;;;;;;19.40;7.00;;;;;;;;;;4933241;29;20028;-73
2022/01/27 10:14:22;;;;;;;19.08;8.00;;;;;;;;;;4918759;29;20043;-70
2022/01/27 10:16:50;;;;;;;20.48;8.55;;;;;;;;;;4929493;29;20032;-72
2022/01/27 10:19:21;;;;;;;23.75;10.00;;;;;;;;;;4915063;29;20106;-71
2022/01/27 10:21:47;;;;;;;20.85;8.52;;;;;;;;;;4913560;29;20075;-73
2022/01/27 10:24:19;;;;;;;19.35;8.85;;;;;;;;;;4929565;29;20477;-74
2022/01/27 10:26:51;;;;;;;20.65;8.27;;;;;;;;;;4921703;29;20028;-73
2022/01/27 10:29:29;;;;;;;21.15;7.55;;;;;;;;;;4928336;29;20076;-73
2022/01/27 10:32:13;;;;;;;14.67;6.60;;;;;;;;;;4925763;29;20024;-73
2022/01/27 10:34:58;;;;;;;22.08;8.60;;;;;;;;;;4932383;29;20351;-73
2022/01/27 10:37:23;;;;;;;21.48;8.70;;;;;;;;;;4921581;29;20032;-72
2022/01/27 10:39:49;;;;;;;27.13;9.52;;;;;;;;;;4917013;29;20024;-73
2022/01/27 10:42:14;;;;;;;20.38;9.68;;;;;;;;;;4927561;29;20031;-73
2022/01/27 10:44:48;;;;;;;21.13;8.63;;;;;;;;;;4916326;29;20035;-73
2022/01/27 10:47:18;;;;;;;24.25;10.23;;;;;;;;;;4927470;29;20024;-73
2022/01/27 10:49:58;;;;;;;16.73;7.15;;;;;;;;;;4932551;29;20028;-73
2022/01/27 10:55:04;;;;;;;22.15;7.78;;;;;;;;;;4930007;29;20028;-72
2022/01/27 10:57:29;;;;;;;20.90;9.60;;;;;;;;;;4913731;29;20027;-73
2022/01/27 11:00:24;;;;;;;20.13;8.18;;;;;;;;;;4904548;29;20027;-73
2022/01/27 11:02:57;;;;;;;17.45;7.20;;;;;;;;;;4918408;29;20782;-73
2022/01/27 11:05:23;;;;;;;20.70;7.80;;;;;;;;;;4932781;29;20029;-73
2022/01/27 11:07:48;;;;;;;25.30;8.05;;;;;;;;;;4924891;29;20044;-73
2022/01/27 11:10:31;;;;;;;17.27;7.22;;;;;;;;;;4935716;29;20477;-71
2022/01/27 11:12:58;;;;;;;18.00;7.47;;;;;;;;;;4913344;29;20032;-73
2022/01/27 11:15:24;;;;;;;23.90;7.45;;;;;;;;;;4918592;29;20490;-73
2022/01/27 11:17:51;;;;;;;17.40;7.03;;;;;;;;;;4916813;29;20039;-73
2022/01/27 11:20:31;;;;;;;21.48;8.10;;;;;;;;;;4928382;29;20027;-73
2022/01/27 11:27:58;;;;;;;17.17;7.20;;;;;;;;;;4928489;29;20497;-72
2022/01/27 11:30:36;;;;;;;22.80;7.53;;;;;;;;;;4926209;29;20537;-72
2022/01/27 11:33:06;;;;;;;21.10;7.40;;;;;;;;;;4925964;29;20032;-72
2022/01/27 11:35:32;;;;;;;17.88;6.90;;;;;;;;;;4925016;29;20151;-72
2022/01/27 11:37:58;;;;;;;16.90;7.93;;;;;;;;;;4910312;29;20130;-72
2022/01/27 11:41:02;;;;;;;19.33;8.13;;;;;;;;;;4926718;29;20082;-73
2022/01/27 11:43:33;;;;;;;25.65;8.73;;;;;;;;;;4887802;29;20084;-72
2022/01/27 11:46:11;;;;;;;22.23;9.05;;;;;;;;;;4897121;29;20024;-73
2022/01/27 11:48:48;;;;;;;24.83;8.40;;;;;;;;;;4897316;29;20044;-72
2022/01/27 11:51:15;;;;;;;21.50;7.60;;;;;;;;;;4881166;29;20043;-73
2022/01/27 11:53:44;;;;;;;21.33;8.40;;;;;;;;;;4896679;29;20076;-73
2022/01/27 11:56:31;;;;;;;22.40;9.02;;;;;;;;;;4896067;29;20029;-73
2022/01/27 11:59:02;;;;;;;20.10;7.38;;;;;;;;;;4876907;29;20525;-72
2022/01/27 12:01:28;;;;;;;19.10;7.43;;;;;;;;;;4896054;29;20036;-73
2022/01/27 12:04:02;;;;;;;19.08;7.53;;;;;;;;;;4895118;29;20032;-72
2022/01/27 12:06:37;;;;;;;19.48;7.75;;;;;;;;;;4894534;29;20063;-71
2022/01/27 12:09:24;;;;;;;22.55;9.30;;;;;;;;;;4880080;29;20626;-73
2022/01/27 12:11:50;;;;;;;22.65;8.73;;;;;;;;;;4876220;29;20052;-73
2022/01/27 12:14:21;;;;;;;27.20;9.40;;;;;;;;;;4911537;29;20036;-73
2022/01/27 12:17:06;;;;;;;25.40;9.40;;;;;;;;;;4924452;29;20020;-73
2022/01/27 12:19:45;;;;;;;18.83;7.05;;;;;;;;;;4904904;29;20024;-73
2022/01/27 12:22:15;;;;;;;20.17;8.13;;;;;;;;;;4900779;29;20134;-71
2022/01/27 12:24:50;;;;;;;22.60;9.45;;;;;;;;;;4924675;29;20047;-73
2022/01/27 12:27:18;;;;;;;21.83;6.82;;;;;;;;;;4918446;29;20497;-71
2022/01/27 12:29:53;;;;;;;19.90;8.68;;;;;;;;;;4908777;29;20028;-73
2022/01/27 12:32:20;;;;;;;20.25;7.53;;;;;;;;;;4901146;29;20386;-73
2022/01/27 12:34:56;;;;;;;22.30;7.70;;;;;;;;;;4914624;29;20023;-73
2022/01/27 12:37:23;;;;;;;22.45;8.77;;;;;;;;;;4925349;29;20397;-73
2022/01/27 12:39:52;;;;;;;24.20;9.10;;;;;;;;;;4931093;29;20024;-73
2022/01/27 12:42:18;;;;;;;20.48;7.72;;;;;;;;;;4906873;29;20127;-73
2022/01/27 12:45:07;;;;;;;19.27;7.97;;;;;;;;;;4931177;29;20128;-73
2022/01/27 12:47:32;;;;;;;19.27;7.93;;;;;;;;;;4902776;29;20028;-73
2022/01/27 12:50:07;;;;;;;21.20;6.80;;;;;;;;;;4931254;29;20500;-73
2022/01/27 12:52:43;;;;;;;21.10;8.38;;;;;;;;;;4923091;29;20186;-73
2022/01/27 12:55:11;;;;;;;16.40;7.90;;;;;;;;;;4903180;29;20024;-73
2022/01/27 12:57:42;;;;;;;23.27;8.70;;;;;;;;;;4926708;29;20028;-73
2022/01/27 13:00:09;;;;;;;20.63;8.18;;;;;;;;;;4919922;29;20032;-73
2022/01/27 13:02:34;;;;;;;18.58;7.75;;;;;;;;;;4909985;29;20035;-73
2022/01/27 13:05:00;;;;;;;20.98;9.85;;;;;;;;;;4919234;29;20402;-73
2022/01/27 13:07:26;;;;;;;20.42;8.57;;;;;;;;;;4922088;29;20056;-74
2022/01/27 13:09:54;;;;;;;21.40;8.70;;;;;;;;;;4913701;29;20106;-72
2022/01/27 13:12:36;;;;;;;20.30;8.40;;;;;;;;;;4921328;29;20068;-70
2022/01/27 13:15:11;;;;;;;20.00;8.32;;;;;;;;;;4902857;29;20091;-73
2022/01/27 13:17:44;;;;;;;19.67;7.45;;;;;;;;;;4927111;29;20023;-74
2022/01/27 13:20:15;;;;;;;18.17;7.20;;;;;;;;;;4928270;29;20543;-74
2022/01/27 13:22:47;;;;;;;19.05;8.50;;;;;;;;;;4923352;29;20035;-74
2022/01/27 13:25:22;;;;;;;20.33;8.60;;;;;;;;;;4925455;29;20477;-70
2022/01/27 13:28:04;;;;;;;18.80;7.65;;;;;;;;;;4909241;29;20075;-73
2022/01/27 13:30:30;;;;;;;16.45;7.00;;;;;;;;;;4921945;29;20102;-73
2022/01/27 13:32:56;;;;;;;14.63;6.88;;;;;;;;;;4924874;29;20028;-74
2022/01/27 13:35:21;;;;;;;15.63;7.65;;;;;;;;;;4921313;29;20019;-74
2022/01/27 13:37:46;;;;;;;18.98;7.38;;;;;;;;;;4926620;29;20027;-74
2022/01/27 13:43:08;;;;;;;18.50;7.47;;;;;;;;;;4926892;29;20426;-74
2022/01/27 13:45:43;;;;;;;17.70;7.75;;;;;;;;;;4933194;29;20020;-74
2022/01/27 13:48:18;;;;;;;16.05;7.00;;;;;;;;;;4926007;29;20063;-74
2022/01/27 13:50:51;;;;;;;15.50;6.95;;;;;;;;;;4925507;29;20095;-74
2022/01/27 13:53:25;;;;;;;16.20;7.22;;;;;;;;;;4916576;29;20034;-73
2022/01/27 13:56:01;;;;;;;13.77;6.93;;;;;;;;;;4923537;29;20031;-73
2022/01/27 13:58:27;;;;;;;14.15;6.00;;;;;;;;;;4923134;29;20086;-73
2022/01/27 14:01:13;;;;;;;15.70;5.35;;;;;;;;;;4923681;29;20020;-73
2022/01/27 14:03:47;;;;;;;16.83;6.03;;;;;;;;;;4922816;29;20039;-74
2022/01/27 14:06:13;;;;;;;16.00;7.00;;;;;;;;;;4925051;29;20087;-74
2022/01/27 14:08:58;;;;;;;17.20;8.23;;;;;;;;;;4906679;29;20032;-72
2022/01/27 14:11:41;;;;;;;14.50;6.40;;;;;;;;;;4910569;29;20130;-74
2022/01/27 14:14:20;;;;;;;11.77;5.10;;;;;;;;;;4910750;29;20110;-73
2022/01/27 14:16:45;;;;;;;;;;;;;;;;;;4914825;29;20039;-73
2022/01/27 14:19:15;;;;;;;12.73;5.07;;;;;;;;;;4912875;29;19958;-74
2022/01/27 14:21:45;;;;;;;18.77;6.75;;;;;;;;;;4912955;29;20258;-73
2022/01/27 14:24:23;;;;;;;18.77;6.20;;;;;;;;;;4923306;29;20063;-74
2022/01/27 14:27:02;;;;;;;12.82;5.97;;;;;;;;;;4918230;29;20028;-74
2022/01/27 14:29:37;;;;;;;10.45;5.50;;;;;;;;;;4906789;29;20035;-74
2022/01/27 14:32:08;;;;;;;15.70;6.43;;;;;;;;;;4908336;29;20032;-73
2022/01/27 14:34:36;;;;;;;15.25;5.60;;;;;;;;;;4924159;29;20019;-73
2022/01/27 14:37:01;;;;;;;13.30;5.75;;;;;;;;;;4930551;29;20097;-74
2022/01/27 14:39:26;;;;;;;13.68;6.15;;;;;;;;;;4919840;29;20429;-73
2022/01/27 14:41:51;;;;;;;9.38;4.78;;;;;;;;;;4925450;29;20099;-73
2022/01/27 14:44:17;;;;;;;13.05;5.25;;;;;;;;;;4927930;29;20047;-74
2022/01/27 14:46:46;;;;;;;14.07;5.97;;;;;;;;;;4921453;29;20024;-73
2022/01/27 14:49:12;;;;;;;11.88;5.85;;;;;;;;;;4924932;29;20560;-74
2022/01/27 14:51:39;;;;;;;11.90;4.63;;;;;;;;;;4910991;29;20032;-73
2022/01/27 14:54:07;;;;;;;14.45;5.78;;;;;;;;;;4930572;29;20042;-73
2022/01/27 14:56:33;;;;;;;13.95;5.28;;;;;;;;;;4927295;29;20028;-73
2022/01/27 14:58:59;;;;;;;14.30;5.13;;;;;;;;;;4930398;29;20032;-73
2022/01/27 15:01:27;;;;;;;12.50;5.18;;;;;;;;;;4908899;29;20031;-73
2022/01/27 15:03:52;;;;;;;13.23;5.72;;;;;;;;;;4907929;29;20021;-73
2022/01/27 15:06:18;;;;;;;12.45;4.90;;;;;;;;;;4934342;29;20050;-74
2022/01/27 15:08:43;;;;;;;10.23;4.60;;;;;;;;;;4914133;29;20027;-74
2022/01/27 15:11:08;;;;;;;10.65;4.60;;;;;;;;;;4926545;29;20031;-74
2022/01/27 15:13:40;;;;;;;11.05;4.38;;;;;;;;;;4927685;29;20024;-73
2022/01/27 15:18:50;;;;;;;10.32;4.75;;;;;;;;;;4930888;29;20456;-74
2022/01/27 15:21:19;;;;;;;11.50;4.40;;;;;;;;;;4929602;29;20107;-74
2022/01/27 15:23:44;;;;;;;;;;;;;;;;;;4926337;29;20043;-74
2022/01/27 15:26:10;;;;;;;9.73;4.55;;;;;;;;;;4929708;29;19919;-73
2022/01/27 15:28:35;;;;;;;9.88;4.50;;;;;;;;;;4930307;29;20114;-74
2022/01/27 15:31:01;;;;;;;10.85;3.97;;;;;;;;;;4921782;29;20038;-74
2022/01/27 15:33:29;;;;;;;10.10;3.67;;;;;;;;;;4934086;29;20039;-74
2022/01/27 15:35:55;;;;;;;;;;;;;;;;;;4908649;29;20119;-74
2022/01/27 15:38:22;;;;;;;12.18;3.90;;;;;;;;;;4933931;29;20010;-74